createdAt,value
2022-09-16T00:03:45.462Z,87.99
2022-09-16T00:13:51.905Z,88.50
2022-09-16T00:24:10.152Z,89.06
2022-09-16T00:34:30.383Z,89.47
2022-09-16T00:45:42.547Z,90.03
2022-09-16T00:55:53.548Z,90.26
2022-09-16T01:06:03.505Z,90.62
2022-09-16T01:17:03.535Z,90.39
2022-09-16T01:28:08.914Z,90.91
2022-09-16T01:39:08.192Z,90.48
2022-09-16T01:49:51.020Z,89.83
2022-09-16T02:00:10.756Z,89.96
2022-09-16T02:11:00.822Z,90.13
2022-09-16T02:21:28.030Z,90.28
2022-09-16T02:31:39.675Z,90.11
2022-09-16T02:41:46.696Z,89.88
2022-09-16T02:52:42.660Z,89.95
2022-09-16T03:02:51.665Z,90.58
2022-09-16T03:13:29.692Z,91.19
2022-09-16T03:24:14.806Z,91.35
2022-09-16T03:34:54.323Z,91.40
2022-09-16T03:45:03.420Z,91.43
2022-09-16T03:55:28.545Z,91.25
2022-09-16T04:05:37.678Z,91.55
2022-09-16T04:16:45.118Z,92.22
2022-09-16T04:27:04.535Z,92.91
2022-09-16T04:37:53.011Z,93.30
2022-09-16T04:48:18.030Z,93.69
2022-09-16T04:58:34.660Z,94.13
2022-09-16T05:09:42.182Z,94.03
2022-09-16T05:20:31.842Z,93.38
2022-09-16T05:31:35.662Z,92.64
2022-09-16T05:41:56.745Z,91.33
2022-09-16T05:52:42.835Z,89.34
2022-09-16T06:03:33.651Z,88.17
2022-09-16T06:14:32.070Z,86.73
2022-09-16T06:25:28.464Z,87.42
2022-09-16T06:35:59.889Z,87.66
2022-09-16T06:46:16.292Z,86.60
2022-09-16T06:56:39.819Z,84.23
2022-09-16T07:07:09.207Z,80.17
2022-09-16T07:17:13.918Z,76.83
2022-09-16T07:27:17.287Z,73.95
2022-09-16T07:37:26.047Z,72.84
2022-09-16T07:47:41.144Z,69.46
2022-09-16T07:57:44.556Z,68.45
2022-09-16T08:07:51.323Z,66.28
2022-09-16T08:18:07.090Z,64.24
2022-09-16T08:28:20.178Z,64.37
2022-09-16T08:38:26.560Z,63.29
2022-09-16T08:48:50.984Z,64.15
2022-09-16T08:59:17.875Z,61.72
2022-09-16T09:09:57.773Z,61.28
2022-09-16T09:20:44.683Z,62.36
2022-09-16T09:31:18.815Z,62.31
2022-09-16T09:41:34.651Z,62.41
2022-09-16T09:52:05.285Z,63.48
2022-09-16T10:02:59.222Z,63.37
2022-09-16T10:13:14.632Z,63.19
2022-09-16T10:23:29.998Z,61.27
2022-09-16T10:33:36.929Z,61.42
2022-09-16T10:43:50.540Z,58.48
2022-09-16T10:54:05.072Z,57.70
2022-09-16T11:04:32.172Z,56.92
2022-09-16T11:15:06.707Z,54.83
2022-09-16T11:25:22.527Z,56.47
2022-09-16T11:35:37.070Z,55.36
2022-09-16T11:46:10.190Z,54.24
2022-09-16T11:56:22.128Z,54.11
2022-09-16T12:07:07.183Z,52.48
2022-09-16T12:17:39.489Z,52.41
2022-09-16T12:28:03.303Z,52.40
2022-09-16T12:38:19.161Z,50.70
2022-09-16T12:48:46.401Z,49.27
2022-09-16T12:59:21.003Z,50.61
2022-09-16T13:09:30.906Z,51.16
2022-09-16T13:20:02.722Z,51.43
2022-09-16T13:30:16.558Z,50.03
2022-09-16T13:40:27.458Z,49.49
2022-09-16T13:50:37.283Z,48.54
2022-09-16T14:01:36.941Z,48.17
2022-09-16T14:12:04.282Z,48.95
2022-09-16T14:22:14.652Z,49.08
2022-09-16T14:32:19.216Z,49.78
2022-09-16T14:42:25.662Z,50.13
2022-09-16T14:52:36.006Z,49.17
2022-09-16T15:03:22.816Z,49.99
2022-09-16T15:13:30.202Z,51.25
2022-09-16T15:23:41.051Z,51.77
2022-09-16T15:33:52.727Z,52.55
2022-09-16T15:44:01.005Z,52.88
2022-09-16T15:54:26.804Z,52.66
2022-09-16T16:04:35.218Z,53.20
2022-09-16T16:14:41.514Z,53.66
2022-09-16T16:24:51.130Z,53.81
2022-09-16T16:34:58.774Z,54.47
2022-09-16T16:45:07.920Z,55.27
2022-09-16T16:55:11.361Z,56.52
2022-09-16T17:05:39.981Z,58.28
2022-09-16T17:15:46.147Z,59.92
2022-09-16T17:26:05.216Z,61.57
2022-09-16T17:36:16.817Z,62.97
2022-09-16T17:46:33.952Z,64.46
2022-09-16T17:56:45.740Z,65.37
2022-09-16T18:07:05.267Z,65.99
2022-09-16T18:17:24.538Z,66.59
2022-09-16T18:28:25.566Z,66.90
2022-09-16T18:39:08.218Z,67.26
2022-09-16T18:49:16.434Z,67.74
2022-09-16T18:59:45.489Z,68.16
2022-09-16T19:09:54.766Z,68.89
2022-09-16T19:20:00.763Z,69.30
2022-09-16T19:30:30.295Z,69.83
2022-09-16T19:40:33.760Z,70.07
2022-09-16T19:50:52.943Z,70.71
2022-09-16T20:01:03.135Z,71.71
2022-09-16T20:11:24.343Z,72.57
2022-09-16T20:21:35.431Z,73.21
2022-09-16T20:32:05.181Z,73.97
2022-09-16T20:42:26.049Z,74.83
2022-09-16T20:52:49.811Z,75.65
2022-09-16T21:03:21.410Z,76.17
2022-09-16T21:14:10.002Z,76.54
2022-09-16T21:24:59.815Z,76.83
2022-09-16T21:35:23.615Z,77.38
2022-09-16T21:45:33.533Z,78.14
2022-09-16T21:56:30.389Z,78.74
2022-09-16T22:07:10.936Z,78.94
2022-09-16T22:18:25.068Z,79.33
2022-09-16T22:28:49.453Z,79.06
2022-09-16T22:40:02.893Z,79.58
2022-09-16T22:50:43.835Z,80.30
2022-09-16T23:00:58.747Z,80.76
2022-09-16T23:11:51.916Z,81.01
2022-09-16T23:22:03.624Z,81.23
2022-09-16T23:32:26.488Z,81.17
2022-09-16T23:42:51.076Z,81.62
2022-09-16T23:52:58.376Z,82.41
